createdAt,value
2023-05-23T00:00:19.010Z,99293.34
2023-05-23T00:02:47.101Z,99298.19
2023-05-23T00:05:15.604Z,99293.13
2023-05-23T00:07:43.112Z,99295.00
2023-05-23T00:10:11.642Z,99289.38
2023-05-23T00:12:39.506Z,99287.88
2023-05-23T00:15:08.210Z,99280.03
2023-05-23T00:17:39.605Z,99298.91
2023-05-23T00:20:12.174Z,99299.22
2023-05-23T00:22:43.139Z,99291.66
2023-05-23T00:25:11.536Z,99288.44
2023-05-23T00:27:39.089Z,99283.97
2023-05-23T00:30:07.579Z,99292.81
2023-05-23T00:32:35.743Z,99290.22
2023-05-23T00:35:03.832Z,99292.22
2023-05-23T00:37:32.359Z,99281.69
2023-05-23T00:40:00.163Z,99279.91
2023-05-23T00:42:27.870Z,99283.47
2023-05-23T00:44:55.507Z,99278.88
2023-05-23T00:47:23.084Z,99277.56
2023-05-23T00:49:50.691Z,99282.59
2023-05-23T00:52:18.451Z,99273.69
2023-05-23T00:54:46.115Z,99271.50
2023-05-23T00:57:13.625Z,99270.53
2023-05-23T00:59:41.398Z,99269.31
2023-05-23T01:02:09.496Z,99261.28
2023-05-23T01:04:37.716Z,99260.72
2023-05-23T01:07:05.614Z,99263.03
2023-05-23T01:12:51.116Z,99255.03
2023-05-23T01:15:22.146Z,99252.63
2023-05-23T01:18:08.963Z,99265.78
2023-05-23T01:20:45.873Z,99263.34
2023-05-23T01:24:03.409Z,99260.34
2023-05-23T01:27:22.039Z,99264.84
2023-05-23T01:29:58.005Z,99273.50
2023-05-23T01:32:29.267Z,99274.16
2023-05-23T01:35:01.376Z,99258.22
2023-05-23T01:37:29.851Z,99257.56
2023-05-23T01:39:57.471Z,99260.34
2023-05-23T01:42:25.171Z,99268.22
2023-05-23T01:44:53.226Z,99265.38
2023-05-23T01:47:22.121Z,99264.19
2023-05-23T01:49:50.652Z,99263.97
2023-05-23T01:52:18.219Z,99262.41
2023-05-23T01:54:49.176Z,99266.25
2023-05-23T01:57:18.465Z,99252.63
2023-05-23T01:59:46.158Z,99254.25
2023-05-23T02:02:13.871Z,99250.72
2023-05-23T02:04:41.363Z,99254.53
2023-05-23T02:07:08.926Z,99252.72
2023-05-23T02:09:38.988Z,99245.72
2023-05-23T02:12:06.984Z,99253.50
2023-05-23T02:14:34.546Z,99259.19
2023-05-23T02:17:04.512Z,99251.56
2023-05-23T02:19:32.062Z,99251.69
2023-05-23T02:21:59.832Z,99247.34
2023-05-23T02:24:27.309Z,99263.41
2023-05-23T02:26:54.899Z,99261.22
2023-05-23T02:29:22.450Z,99253.31
2023-05-23T02:31:50.020Z,99258.84
2023-05-23T02:34:17.765Z,99265.69
2023-05-23T02:36:45.743Z,99265.69
2023-05-23T02:39:13.725Z,99268.25
2023-05-23T02:41:41.480Z,99264.88
2023-05-23T02:44:09.095Z,99263.91
2023-05-23T02:46:36.611Z,99249.66
2023-05-23T02:49:05.080Z,99265.75
2023-05-23T02:51:33.599Z,99259.53
2023-05-23T02:54:01.151Z,99258.38
2023-05-23T02:56:29.251Z,99258.66
2023-05-23T02:58:56.907Z,99258.19
2023-05-23T03:01:24.637Z,99250.47
2023-05-23T03:03:52.195Z,99250.97
2023-05-23T03:06:22.614Z,99251.50
2023-05-23T03:08:50.709Z,99250.84
2023-05-23T03:11:18.488Z,99248.50
2023-05-23T03:13:46.025Z,99246.97
2023-05-23T03:16:13.508Z,99257.97
2023-05-23T03:18:42.205Z,99256.44
2023-05-23T03:21:09.717Z,99256.75
2023-05-23T03:23:37.509Z,99252.78
2023-05-23T03:26:07.714Z,99260.66
2023-05-23T03:28:35.917Z,99256.88
2023-05-23T03:31:03.543Z,99252.00
2023-05-23T03:33:31.345Z,99258.13
2023-05-23T03:35:58.916Z,99256.00
2023-05-23T03:38:27.997Z,99258.28
2023-05-23T03:40:55.943Z,99258.19
2023-05-23T03:43:23.562Z,99256.47
2023-05-23T03:45:51.203Z,99250.78
2023-05-23T03:48:18.989Z,99254.56
2023-05-23T03:50:47.705Z,99263.72
2023-05-23T03:53:15.419Z,99259.06
2023-05-23T03:55:43.316Z,99260.47
2023-05-23T03:58:12.450Z,99258.53
2023-05-23T04:00:42.407Z,99263.09
2023-05-23T04:03:11.707Z,99267.53
2023-05-23T04:05:40.253Z,99275.25
2023-05-23T04:08:08.278Z,99278.00
2023-05-23T04:10:35.993Z,99282.97
2023-05-23T04:13:03.537Z,99273.53
2023-05-23T04:15:34.288Z,99285.19
2023-05-23T04:18:09.381Z,99283.84
2023-05-23T04:20:37.712Z,99275.44
2023-05-23T04:23:05.847Z,99277.34
2023-05-23T04:25:36.564Z,99280.38
2023-05-23T04:28:19.660Z,99288.72
2023-05-23T04:30:49.489Z,99280.38
2023-05-23T04:33:20.167Z,99286.31
2023-05-23T04:35:47.827Z,99281.41
2023-05-23T04:38:15.309Z,99283.16
2023-05-23T04:40:43.430Z,99290.72
2023-05-23T04:43:34.073Z,99291.59
2023-05-23T04:46:19.031Z,99289.31
2023-05-23T04:48:49.268Z,99298.09
2023-05-23T04:51:16.796Z,99292.38
2023-05-23T04:53:52.935Z,99290.28
2023-05-23T04:56:21.929Z,99296.22
2023-05-23T04:58:50.193Z,99296.22
2023-05-23T05:01:18.035Z,99293.13
2023-05-23T05:03:45.799Z,99291.59
2023-05-23T05:06:14.409Z,99295.78
2023-05-23T05:08:43.092Z,99293.00
2023-05-23T05:11:11.605Z,99305.19
2023-05-23T05:13:39.458Z,99302.31
2023-05-23T05:16:07.737Z,99299.44
2023-05-23T05:18:36.594Z,99300.00
2023-05-23T05:21:04.624Z,99304.72
2023-05-23T05:23:33.411Z,99305.75
2023-05-23T05:26:01.290Z,99311.63
2023-05-23T05:28:28.899Z,99315.28
2023-05-23T05:30:56.963Z,99311.63
2023-05-23T05:33:25.102Z,99324.09
2023-05-23T05:36:08.190Z,99318.47
2023-05-23T05:38:36.527Z,99327.34
2023-05-23T05:41:04.533Z,99328.56
2023-05-23T05:43:37.568Z,99331.13
2023-05-23T05:46:05.872Z,99334.19
2023-05-23T05:48:34.280Z,99334.81
2023-05-23T05:51:06.445Z,99351.44
2023-05-23T05:53:35.085Z,99345.47
2023-05-23T05:56:03.665Z,99336.63
2023-05-23T05:58:32.898Z,99340.00
2023-05-23T06:01:03.786Z,99343.56
2023-05-23T06:03:32.188Z,99341.53
2023-05-23T06:06:00.138Z,99345.28
2023-05-23T06:08:27.855Z,99348.78
2023-05-23T06:10:57.017Z,99347.69
2023-05-23T06:13:26.123Z,99343.84
2023-05-23T06:15:54.766Z,99343.72
2023-05-23T06:18:23.254Z,99353.63
2023-05-23T06:20:52.084Z,99340.78
2023-05-23T06:23:21.726Z,99344.50
2023-05-23T06:25:49.533Z,99344.09
2023-05-23T06:28:17.112Z,99344.13
2023-05-23T06:30:46.505Z,99342.03
2023-05-23T06:33:14.120Z,99335.94
2023-05-23T06:35:43.476Z,99337.66
2023-05-23T06:38:11.138Z,99325.00
2023-05-23T06:40:38.727Z,99323.63
2023-05-23T06:43:06.437Z,99321.75
2023-05-23T06:45:51.913Z,99320.44
2023-05-23T06:48:19.641Z,99323.28
2023-05-23T06:50:48.072Z,99318.03
2023-05-23T06:53:18.877Z,99318.41
2023-05-23T06:55:47.512Z,99315.19
2023-05-23T06:58:18.035Z,99316.16
2023-05-23T07:00:45.793Z,99316.34
2023-05-23T07:03:24.009Z,99310.69
2023-05-23T07:05:53.018Z,99316.84
2023-05-23T07:08:23.005Z,99317.41
2023-05-23T07:11:01.256Z,99325.19
2023-05-23T07:13:32.960Z,99319.22
2023-05-23T07:16:00.994Z,99319.13
2023-05-23T07:18:28.648Z,99313.31
2023-05-23T07:20:57.910Z,99317.22
2023-05-23T07:23:26.437Z,99317.25
2023-05-23T07:26:02.401Z,99319.56
2023-05-23T07:28:42.726Z,99311.63
2023-05-23T07:31:10.442Z,99309.72
2023-05-23T07:33:39.267Z,99307.06
2023-05-23T07:36:09.402Z,99312.84
2023-05-23T07:38:36.903Z,99309.00
2023-05-23T07:43:41.130Z,99312.47
2023-05-23T07:46:08.934Z,99309.78
2023-05-23T07:48:38.009Z,99315.09
2023-05-23T07:51:06.121Z,99313.13
2023-05-23T07:53:35.063Z,99314.63
2023-05-23T07:56:04.343Z,99321.16
2023-05-23T07:58:36.895Z,99317.28
2023-05-23T08:01:04.434Z,99306.84
2023-05-23T08:03:58.241Z,99310.56
2023-05-23T08:07:00.821Z,99312.34
2023-05-23T08:09:41.924Z,99309.09
2023-05-23T08:12:12.858Z,99305.78
2023-05-23T08:14:50.629Z,99309.56
2023-05-23T08:17:32.801Z,99312.13
2023-05-23T08:20:01.370Z,99311.63
2023-05-23T08:22:30.638Z,99308.38
2023-05-23T08:24:58.760Z,99309.81
2023-05-23T08:27:28.181Z,99301.63
2023-05-23T08:29:59.836Z,99310.28
2023-05-23T08:32:27.604Z,99305.09
2023-05-23T08:34:55.452Z,99304.44
2023-05-23T08:37:43.142Z,99302.34
2023-05-23T08:40:22.091Z,99299.28
2023-05-23T08:42:58.893Z,99301.00
2023-05-23T08:45:27.096Z,99298.13
2023-05-23T08:47:57.129Z,99296.72
2023-05-23T08:50:30.101Z,99299.25
2023-05-23T08:52:59.954Z,99303.66
2023-05-23T08:55:30.382Z,99302.78
2023-05-23T08:58:00.644Z,99303.25
2023-05-23T09:00:53.807Z,99298.69
2023-05-23T09:03:22.540Z,99297.63
2023-05-23T09:06:08.846Z,99285.84
2023-05-23T09:08:37.473Z,99293.75
2023-05-23T09:11:06.349Z,99301.22
2023-05-23T09:13:37.677Z,99297.19
2023-05-23T09:16:12.785Z,99285.59
2023-05-23T09:18:45.997Z,99287.53
2023-05-23T09:21:16.740Z,99282.22
2023-05-23T09:23:53.350Z,99289.22
2023-05-23T09:26:21.117Z,99282.72
2023-05-23T09:28:49.279Z,99284.47
2023-05-23T09:31:16.831Z,99273.84
2023-05-23T09:33:50.152Z,99284.47
2023-05-23T09:36:20.543Z,99283.13
2023-05-23T09:38:49.103Z,99275.34
2023-05-23T09:41:17.887Z,99274.94
2023-05-23T09:43:55.244Z,99275.69
2023-05-23T09:46:28.021Z,99274.25
2023-05-23T09:48:56.255Z,99274.25
2023-05-23T09:51:25.114Z,99269.31
2023-05-23T09:53:53.338Z,99273.63
2023-05-23T09:56:21.283Z,99270.94
2023-05-23T09:58:50.942Z,99271.38
2023-05-23T10:01:19.037Z,99266.75
2023-05-23T10:03:58.011Z,99267.66
2023-05-23T10:06:45.375Z,99271.06
2023-05-23T10:09:20.297Z,99264.09
2023-05-23T10:12:30.867Z,99266.00
2023-05-23T10:15:04.667Z,99253.41
2023-05-23T10:17:57.836Z,99255.75
2023-05-23T10:20:32.055Z,99260.19
2023-05-23T10:23:02.058Z,99260.63
2023-05-23T10:25:31.662Z,99263.56
2023-05-23T10:28:03.157Z,99257.84
2023-05-23T10:30:32.275Z,99252.38
2023-05-23T10:33:00.630Z,99249.69
2023-05-23T10:35:57.092Z,99251.03
2023-05-23T10:38:39.162Z,99250.00
2023-05-23T10:41:39.695Z,99246.38
2023-05-23T10:44:17.684Z,99234.53
2023-05-23T10:47:02.684Z,99235.25
2023-05-23T10:49:44.897Z,99244.31
2023-05-23T10:52:16.613Z,99232.69
2023-05-23T10:54:52.869Z,99241.31
2023-05-23T10:57:27.977Z,99237.44
2023-05-23T10:59:55.883Z,99238.16
2023-05-23T11:02:29.067Z,99241.50
2023-05-23T11:05:28.218Z,99242.75
2023-05-23T11:08:16.298Z,99248.25
2023-05-23T11:11:23.825Z,99238.63
2023-05-23T11:13:57.637Z,99252.91
2023-05-23T11:16:26.751Z,99249.41
2023-05-23T11:19:21.156Z,99252.13
2023-05-23T11:22:02.236Z,99243.97
2023-05-23T11:24:54.498Z,99254.44
2023-05-23T11:27:40.885Z,99251.19
2023-05-23T11:30:10.074Z,99244.63
2023-05-23T11:32:38.355Z,99246.06
2023-05-23T11:35:11.365Z,99242.84
2023-05-23T11:37:40.241Z,99238.28
2023-05-23T11:40:32.279Z,99228.00
2023-05-23T11:43:02.767Z,99228.50
2023-05-23T11:45:32.132Z,99230.88
2023-05-23T11:48:04.995Z,99237.94
2023-05-23T11:50:32.732Z,99242.88
2023-05-23T11:53:00.768Z,99246.91
2023-05-23T11:55:28.334Z,99239.84
2023-05-23T11:57:57.962Z,99241.16
2023-05-23T12:00:25.854Z,99241.75
2023-05-23T12:02:53.545Z,99238.28
2023-05-23T12:05:21.057Z,99243.94
2023-05-23T12:07:50.206Z,99244.81
2023-05-23T12:10:21.823Z,99240.94
2023-05-23T12:12:50.577Z,99239.38
2023-05-23T12:15:18.368Z,99236.09
2023-05-23T12:17:47.229Z,99233.16
2023-05-23T12:20:15.270Z,99239.22
2023-05-23T12:22:43.485Z,99234.59
2023-05-23T12:25:11.677Z,99229.44
2023-05-23T12:27:43.897Z,99233.13
2023-05-23T12:30:16.585Z,99217.75
2023-05-23T12:32:46.779Z,99221.13
2023-05-23T12:35:17.388Z,99209.94
2023-05-23T12:37:46.280Z,99216.00
2023-05-23T12:40:18.392Z,99212.31
2023-05-23T12:42:56.787Z,99208.94
2023-05-23T12:45:36.900Z,99199.19
2023-05-23T12:48:06.136Z,99197.34
2023-05-23T12:50:34.458Z,99194.56
2023-05-23T12:53:02.000Z,99193.38
2023-05-23T12:55:29.651Z,99195.84
2023-05-23T12:57:58.490Z,99194.63
2023-05-23T13:00:26.178Z,99200.50
2023-05-23T13:02:53.794Z,99195.31
2023-05-23T13:05:22.551Z,99197.03
2023-05-23T13:07:50.288Z,99194.13
2023-05-23T13:10:17.957Z,99201.94
2023-05-23T13:12:45.507Z,99198.34
2023-05-23T13:15:13.108Z,99191.00
2023-05-23T13:17:41.102Z,99190.03
2023-05-23T13:20:10.973Z,99195.06
2023-05-23T13:22:38.509Z,99196.88
2023-05-23T13:25:08.262Z,99199.88
2023-05-23T13:27:35.961Z,99196.44
2023-05-23T13:30:03.674Z,99188.38
2023-05-23T13:32:31.676Z,99178.31
2023-05-23T13:34:59.168Z,99185.75
2023-05-23T13:37:26.972Z,99194.78
2023-05-23T13:39:54.551Z,99197.41
2023-05-23T13:42:22.082Z,99190.25
2023-05-23T13:44:49.565Z,99203.38
2023-05-23T13:47:17.071Z,99192.72
2023-05-23T13:49:45.047Z,99203.47
2023-05-23T13:52:13.000Z,99196.34
2023-05-23T13:54:41.706Z,99194.78
2023-05-23T13:57:09.458Z,99199.31
2023-05-23T13:59:37.073Z,99204.97
2023-05-23T14:02:04.811Z,99197.28
2023-05-23T14:04:33.770Z,99203.88
2023-05-23T14:07:01.272Z,99197.47
2023-05-23T14:09:28.817Z,99205.78
2023-05-23T14:11:56.622Z,99215.09
2023-05-23T14:14:24.830Z,99208.94
2023-05-23T14:16:52.422Z,99206.19
2023-05-23T14:19:20.665Z,99204.06
2023-05-23T14:21:48.284Z,99196.00
2023-05-23T14:24:16.101Z,99185.03
2023-05-23T14:26:43.707Z,99188.06
2023-05-23T14:29:11.330Z,99187.59
2023-05-23T14:31:38.875Z,99192.66
2023-05-23T14:34:06.517Z,99190.75
2023-05-23T14:36:34.070Z,99192.63
2023-05-23T14:39:01.659Z,99187.69
2023-05-23T14:41:29.183Z,99192.28
2023-05-23T14:43:56.769Z,99193.78
2023-05-23T14:46:25.489Z,99198.78
2023-05-23T14:48:53.001Z,99199.88
2023-05-23T14:51:34.591Z,99209.41
2023-05-23T14:54:09.362Z,99195.66
2023-05-23T14:56:37.894Z,99183.50
2023-05-23T14:59:11.494Z,99193.00
2023-05-23T15:01:42.368Z,99184.25
2023-05-23T15:04:10.409Z,99175.06
2023-05-23T15:06:40.396Z,99178.34
2023-05-23T15:09:09.769Z,99182.06
2023-05-23T15:11:38.933Z,99179.38
2023-05-23T15:14:07.353Z,99178.41
2023-05-23T15:16:36.795Z,99169.78
2023-05-23T15:19:06.055Z,99179.03
2023-05-23T15:21:36.558Z,99198.84
2023-05-23T15:24:04.510Z,99195.16
2023-05-23T15:26:32.312Z,99198.19
2023-05-23T15:28:59.857Z,99194.88
2023-05-23T15:31:28.101Z,99193.19
2023-05-23T15:33:55.831Z,99189.56
2023-05-23T15:36:23.959Z,99185.09
2023-05-23T15:38:51.523Z,99187.00
2023-05-23T15:41:19.059Z,99180.53
2023-05-23T15:43:47.663Z,99180.66
2023-05-23T15:46:17.093Z,99186.84
2023-05-23T15:48:44.665Z,99189.75
2023-05-23T15:51:12.422Z,99183.19
2023-05-23T15:53:59.032Z,99185.69
2023-05-23T15:56:27.986Z,99181.03
2023-05-23T15:58:56.323Z,99176.81
2023-05-23T16:01:24.377Z,99180.63
2023-05-23T16:03:53.522Z,99171.72
2023-05-23T16:06:22.075Z,99172.38
2023-05-23T16:08:49.605Z,99176.31
2023-05-23T16:11:17.212Z,99174.81
2023-05-23T16:13:44.795Z,99170.94
2023-05-23T16:16:13.282Z,99168.97
2023-05-23T16:18:40.951Z,99172.09
2023-05-23T16:21:08.976Z,99171.78
2023-05-23T16:23:36.899Z,99165.81
2023-05-23T16:26:04.701Z,99164.34
2023-05-23T16:28:32.440Z,99162.94
2023-05-23T16:31:01.537Z,99169.94
2023-05-23T16:33:30.074Z,99167.34
2023-05-23T16:35:57.574Z,99165.53
2023-05-23T16:38:25.496Z,99167.47
2023-05-23T16:40:53.166Z,99178.53
2023-05-23T16:43:20.863Z,99172.09
2023-05-23T16:45:48.814Z,99179.72
2023-05-23T16:48:17.350Z,99178.56
2023-05-23T16:50:46.454Z,99185.81
2023-05-23T16:53:15.523Z,99191.19
2023-05-23T16:55:43.333Z,99189.25
2023-05-23T16:58:12.289Z,99185.84
2023-05-23T17:00:42.958Z,99187.00
2023-05-23T17:03:10.737Z,99190.81
2023-05-23T17:05:39.509Z,99193.91
2023-05-23T17:08:07.485Z,99193.16
2023-05-23T17:10:36.225Z,99196.22
2023-05-23T17:13:03.794Z,99185.56
2023-05-23T17:15:31.366Z,99182.94
2023-05-23T17:17:59.056Z,99189.06
2023-05-23T17:20:28.941Z,99190.91
2023-05-23T17:22:57.654Z,99187.88
2023-05-23T17:25:26.332Z,99188.66
2023-05-23T17:27:54.160Z,99181.03
2023-05-23T17:30:23.072Z,99179.09
2023-05-23T17:32:52.488Z,99184.81
2023-05-23T17:35:22.315Z,99180.63
2023-05-23T17:37:52.672Z,99176.41
2023-05-23T17:40:21.215Z,99180.97
2023-05-23T17:45:55.722Z,99189.28
2023-05-23T17:48:42.538Z,99196.84
2023-05-23T17:51:19.249Z,99197.53
2023-05-23T17:53:53.423Z,99196.03
2023-05-23T17:56:25.348Z,99198.28
2023-05-23T17:58:54.061Z,99206.63
2023-05-23T18:01:26.413Z,99210.78
2023-05-23T18:03:54.819Z,99209.56
2023-05-23T18:06:22.419Z,99217.56
2023-05-23T18:08:54.420Z,99219.44
2023-05-23T18:11:25.881Z,99232.66
2023-05-23T18:13:55.177Z,99237.91
2023-05-23T18:16:24.311Z,99225.38
2023-05-23T18:18:51.946Z,99233.38
2023-05-23T18:21:20.612Z,99242.81
2023-05-23T18:23:49.972Z,99235.94
2023-05-23T18:26:23.905Z,99243.88
2023-05-23T18:28:51.581Z,99259.81
2023-05-23T18:31:22.954Z,99287.09
2023-05-23T18:34:00.470Z,99280.44
2023-05-23T18:36:28.878Z,99265.78
2023-05-23T18:38:56.501Z,99269.78
2023-05-23T18:41:26.835Z,99274.59
2023-05-23T18:43:54.779Z,99275.69
2023-05-23T18:46:25.627Z,99273.88
2023-05-23T18:48:53.885Z,99286.34
2023-05-23T18:51:28.241Z,99288.97
2023-05-23T18:53:59.277Z,99294.50
2023-05-23T18:56:28.332Z,99296.66
2023-05-23T18:58:57.240Z,99289.88
2023-05-23T19:01:26.101Z,99297.34
2023-05-23T19:03:58.337Z,99298.63
2023-05-23T19:06:53.094Z,99308.53
2023-05-23T19:09:21.173Z,99293.88
2023-05-23T19:11:52.620Z,99297.47
2023-05-23T19:14:20.937Z,99299.50
2023-05-23T19:16:52.123Z,99300.72
2023-05-23T19:19:26.789Z,99303.66
2023-05-23T19:21:59.525Z,99306.59
2023-05-23T19:24:28.401Z,99311.09
2023-05-23T19:26:57.517Z,99319.88
2023-05-23T19:29:26.948Z,99317.28
2023-05-23T19:32:02.897Z,99309.75
2023-05-23T19:34:35.637Z,99312.72
2023-05-23T19:37:05.765Z,99324.91
2023-05-23T19:39:34.735Z,99315.06
2023-05-23T19:42:02.608Z,99316.94
2023-05-23T19:44:31.803Z,99317.72
2023-05-23T19:47:00.157Z,99306.66
2023-05-23T19:49:27.754Z,99319.50
2023-05-23T19:51:55.371Z,99312.31
2023-05-23T19:54:25.950Z,99318.72
2023-05-23T19:56:54.696Z,99309.88
2023-05-23T19:59:22.385Z,99312.09
2023-05-23T20:01:50.190Z,99309.41
2023-05-23T20:04:17.934Z,99314.31
2023-05-23T20:06:45.501Z,99324.53
2023-05-23T20:09:14.167Z,99316.88
2023-05-23T20:11:43.050Z,99319.84
2023-05-23T20:14:17.911Z,99317.19
2023-05-23T20:16:49.213Z,99315.63
2023-05-23T20:19:18.044Z,99316.38
2023-05-23T20:21:47.338Z,99319.78
2023-05-23T20:24:16.359Z,99314.44
2023-05-23T20:26:44.264Z,99320.88
2023-05-23T20:29:12.267Z,99324.22
2023-05-23T20:31:47.413Z,99315.06
2023-05-23T20:34:15.212Z,99318.09
2023-05-23T20:36:42.920Z,99319.16
2023-05-23T20:39:11.158Z,99310.38
2023-05-23T20:41:42.265Z,99320.28
2023-05-23T20:44:12.788Z,99309.25
2023-05-23T20:46:44.792Z,99310.13
2023-05-23T20:49:12.540Z,99313.19
2023-05-23T20:51:40.148Z,99315.38
2023-05-23T20:54:08.295Z,99315.28
2023-05-23T20:56:37.378Z,99314.09
2023-05-23T20:59:06.461Z,99318.63
2023-05-23T21:01:34.169Z,99317.81
2023-05-23T21:04:06.717Z,99323.41
2023-05-23T21:06:34.391Z,99328.22
2023-05-23T21:09:05.378Z,99322.16
2023-05-23T21:11:34.277Z,99322.34
2023-05-23T21:14:03.180Z,99319.50
2023-05-23T21:16:33.262Z,99323.72
2023-05-23T21:19:01.079Z,99331.94
2023-05-23T21:21:29.912Z,99340.50
2023-05-23T21:23:58.114Z,99329.59
2023-05-23T21:26:25.802Z,99339.84
2023-05-23T21:28:54.274Z,99344.69
2023-05-23T21:31:33.048Z,99338.91
2023-05-23T21:34:18.579Z,99340.94
2023-05-23T21:36:50.845Z,99339.84
2023-05-23T21:39:18.416Z,99337.25
2023-05-23T21:41:46.083Z,99345.25
2023-05-23T21:44:15.643Z,99334.94
2023-05-23T21:46:43.166Z,99343.25
2023-05-23T21:49:10.913Z,99334.41
2023-05-23T21:51:38.518Z,99334.06
2023-05-23T21:54:06.796Z,99344.59
2023-05-23T21:56:34.299Z,99336.56
2023-05-23T21:59:01.860Z,99340.00
2023-05-23T22:01:29.376Z,99340.13
2023-05-23T22:03:57.052Z,99337.84
2023-05-23T22:06:24.622Z,99334.28
2023-05-23T22:08:52.504Z,99334.22
2023-05-23T22:11:20.174Z,99329.31
2023-05-23T22:13:47.901Z,99329.19
2023-05-23T22:16:15.530Z,99323.56
2023-05-23T22:18:51.612Z,99315.91
2023-05-23T22:21:19.747Z,99319.19
2023-05-23T22:23:47.447Z,99323.66
2023-05-23T22:26:17.451Z,99315.41
2023-05-23T22:28:47.999Z,99311.66
2023-05-23T22:31:16.775Z,99310.47
2023-05-23T22:33:44.730Z,99312.34
2023-05-23T22:36:12.795Z,99307.88
2023-05-23T22:38:40.517Z,99305.97
2023-05-23T22:41:08.140Z,99306.94
2023-05-23T22:43:35.728Z,99317.22
2023-05-23T22:46:03.414Z,99319.88
2023-05-23T22:48:33.942Z,99322.47
2023-05-23T22:51:03.049Z,99322.09
2023-05-23T22:53:31.252Z,99318.53
2023-05-23T22:55:59.172Z,99316.69
2023-05-23T22:58:26.863Z,99312.66
2023-05-23T23:00:54.436Z,99304.28
2023-05-23T23:03:22.219Z,99298.56
2023-05-23T23:05:49.835Z,99307.53
2023-05-23T23:08:17.785Z,99306.75
2023-05-23T23:10:45.523Z,99299.69
2023-05-23T23:13:14.170Z,99298.66
2023-05-23T23:15:43.248Z,99298.06
2023-05-23T23:18:13.498Z,99296.09
2023-05-23T23:20:41.759Z,99294.56
2023-05-23T23:23:09.467Z,99293.31
2023-05-23T23:25:37.851Z,99288.09
2023-05-23T23:28:05.468Z,99299.16
2023-05-23T23:30:32.987Z,99293.34
2023-05-23T23:33:00.828Z,99297.38
2023-05-23T23:35:28.376Z,99293.63
2023-05-23T23:37:55.930Z,99299.81
2023-05-23T23:40:23.459Z,99299.47
2023-05-23T23:42:50.968Z,99300.16
2023-05-23T23:45:18.846Z,99288.41
2023-05-23T23:47:46.639Z,99279.88
2023-05-23T23:50:14.215Z,99276.41
2023-05-23T23:52:41.922Z,99272.47
2023-05-23T23:55:09.956Z,99283.06
2023-05-23T23:57:37.515Z,99268.06
